sensor_id;sensor_type;location;lat;lon;timestamp;P1;durP1;ratioP1;P2;durP2;ratioP2
59006;SDS011;44792;52.760;6.726;2023-11-19T00:00:26;26.63;;;12.40;;
59006;SDS011;44792;52.760;6.726;2023-11-19T00:02:51;24.48;;;13.35;;
59006;SDS011;44792;52.760;6.726;2023-11-19T00:05:18;23.55;;;13.52;;
59006;SDS011;44792;52.760;6.726;2023-11-19T00:07:44;24.55;;;13.73;;
59006;SDS011;44792;52.760;6.726;2023-11-19T00:10:13;26.70;;;14.68;;
59006;SDS011;44792;52.760;6.726;2023-11-19T00:12:44;24.85;;;13.73;;
59006;SDS011;44792;52.760;6.726;2023-11-19T00:15:15;30.42;;;15.30;;
59006;SDS011;44792;52.760;6.726;2023-11-19T00:17:46;33.30;;;15.65;;
59006;SDS011;44792;52.760;6.726;2023-11-19T00:20:14;30.17;;;14.52;;
59006;SDS011;44792;52.760;6.726;2023-11-19T00:22:41;29.70;;;15.48;;
59006;SDS011;44792;52.760;6.726;2023-11-19T00:25:08;30.17;;;15.00;;
59006;SDS011;44792;52.760;6.726;2023-11-19T00:27:34;37.05;;;15.45;;
59006;SDS011;44792;52.760;6.726;2023-11-19T00:30:00;30.13;;;15.10;;
59006;SDS011;44792;52.760;6.726;2023-11-19T00:32:26;34.47;;;15.85;;
59006;SDS011;44792;52.760;6.726;2023-11-19T00:34:52;41.05;;;17.15;;
59006;SDS011;44792;52.760;6.726;2023-11-19T00:37:17;33.40;;;16.25;;
59006;SDS011;44792;52.760;6.726;2023-11-19T00:39:43;37.58;;;16.65;;
59006;SDS011;44792;52.760;6.726;2023-11-19T00:42:10;34.30;;;16.55;;
59006;SDS011;44792;52.760;6.726;2023-11-19T00:44:36;41.35;;;15.85;;
59006;SDS011;44792;52.760;6.726;2023-11-19T00:47:02;43.72;;;17.42;;
59006;SDS011;44792;52.760;6.726;2023-11-19T00:49:28;37.60;;;16.73;;
59006;SDS011;44792;52.760;6.726;2023-11-19T00:51:54;47.00;;;17.27;;
59006;SDS011;44792;52.760;6.726;2023-11-19T00:54:20;38.78;;;16.90;;
59006;SDS011;44792;52.760;6.726;2023-11-19T00:56:46;44.38;;;18.35;;
59006;SDS011;44792;52.760;6.726;2023-11-19T00:59:11;39.17;;;17.13;;
59006;SDS011;44792;52.760;6.726;2023-11-19T01:01:37;44.72;;;18.17;;
59006;SDS011;44792;52.760;6.726;2023-11-19T01:04:03;36.33;;;17.10;;
59006;SDS011;44792;52.760;6.726;2023-11-19T01:08:55;44.80;;;16.90;;
59006;SDS011;44792;52.760;6.726;2023-11-19T01:11:25;51.20;;;17.30;;
59006;SDS011;44792;52.760;6.726;2023-11-19T01:13:51;35.20;;;16.75;;
59006;SDS011;44792;52.760;6.726;2023-11-19T01:16:17;37.83;;;16.95;;
59006;SDS011;44792;52.760;6.726;2023-11-19T01:18:44;33.60;;;16.80;;
59006;SDS011;44792;52.760;6.726;2023-11-19T01:21:12;43.13;;;16.42;;
59006;SDS011;44792;52.760;6.726;2023-11-19T01:23:39;41.38;;;16.83;;
59006;SDS011;44792;52.760;6.726;2023-11-19T01:26:08;37.55;;;16.50;;
59006;SDS011;44792;52.760;6.726;2023-11-19T01:28:35;46.45;;;16.27;;
59006;SDS011;44792;52.760;6.726;2023-11-19T01:31:01;45.25;;;16.02;;
59006;SDS011;44792;52.760;6.726;2023-11-19T01:33:28;43.22;;;16.80;;
59006;SDS011;44792;52.760;6.726;2023-11-19T01:35:55;41.72;;;15.70;;
59006;SDS011;44792;52.760;6.726;2023-11-19T01:38:24;34.47;;;16.10;;
59006;SDS011;44792;52.760;6.726;2023-11-19T01:40:50;36.33;;;14.63;;
59006;SDS011;44792;52.760;6.726;2023-11-19T01:43:39;41.92;;;16.15;;
59006;SDS011;44792;52.760;6.726;2023-11-19T01:46:07;36.20;;;14.63;;
59006;SDS011;44792;52.760;6.726;2023-11-19T01:48:37;35.65;;;14.57;;
59006;SDS011;44792;52.760;6.726;2023-11-19T01:51:08;39.05;;;14.23;;
59006;SDS011;44792;52.760;6.726;2023-11-19T01:53:35;38.80;;;14.60;;
59006;SDS011;44792;52.760;6.726;2023-11-19T01:56:03;36.25;;;15.35;;
59006;SDS011;44792;52.760;6.726;2023-11-19T01:58:35;39.92;;;13.60;;
59006;SDS011;44792;52.760;6.726;2023-11-19T02:01:01;33.42;;;11.70;;
59006;SDS011;44792;52.760;6.726;2023-11-19T02:03:30;38.17;;;14.15;;
59006;SDS011;44792;52.760;6.726;2023-11-19T02:06:00;44.17;;;12.87;;
59006;SDS011;44792;52.760;6.726;2023-11-19T02:08:28;38.30;;;10.35;;
59006;SDS011;44792;52.760;6.726;2023-11-19T02:10:55;44.85;;;11.32;;
59006;SDS011;44792;52.760;6.726;2023-11-19T02:13:25;28.92;;;9.10;;
59006;SDS011;44792;52.760;6.726;2023-11-19T02:15:53;28.77;;;9.43;;
59006;SDS011;44792;52.760;6.726;2023-11-19T02:18:24;32.80;;;8.55;;
59006;SDS011;44792;52.760;6.726;2023-11-19T02:20:53;28.38;;;7.63;;
59006;SDS011;44792;52.760;6.726;2023-11-19T02:23:19;34.88;;;7.70;;
59006;SDS011;44792;52.760;6.726;2023-11-19T02:26:12;31.77;;;7.38;;
59006;SDS011;44792;52.760;6.726;2023-11-19T02:28:42;34.72;;;7.93;;
59006;SDS011;44792;52.760;6.726;2023-11-19T02:31:10;29.13;;;6.88;;
59006;SDS011;44792;52.760;6.726;2023-11-19T02:33:37;30.80;;;6.22;;
59006;SDS011;44792;52.760;6.726;2023-11-19T02:36:07;43.75;;;7.80;;
59006;SDS011;44792;52.760;6.726;2023-11-19T02:38:33;32.42;;;6.13;;
59006;SDS011;44792;52.760;6.726;2023-11-19T02:41:02;30.20;;;5.38;;
59006;SDS011;44792;52.760;6.726;2023-11-19T02:43:31;29.35;;;6.28;;
59006;SDS011;44792;52.760;6.726;2023-11-19T02:46:00;30.48;;;5.38;;
59006;SDS011;44792;52.760;6.726;2023-11-19T02:48:27;32.25;;;5.28;;
59006;SDS011;44792;52.760;6.726;2023-11-19T02:50:53;37.45;;;5.55;;
59006;SDS011;44792;52.760;6.726;2023-11-19T02:53:19;29.50;;;6.03;;
59006;SDS011;44792;52.760;6.726;2023-11-19T02:55:48;27.95;;;4.90;;
59006;SDS011;44792;52.760;6.726;2023-11-19T02:58:15;35.67;;;5.43;;
59006;SDS011;44792;52.760;6.726;2023-11-19T03:00:53;36.50;;;4.75;;
59006;SDS011;44792;52.760;6.726;2023-11-19T03:03:34;22.08;;;4.72;;
59006;SDS011;44792;52.760;6.726;2023-11-19T03:06:05;39.45;;;5.13;;
59006;SDS011;44792;52.760;6.726;2023-11-19T03:08:35;38.08;;;4.60;;
59006;SDS011;44792;52.760;6.726;2023-11-19T03:11:01;30.67;;;4.55;;
59006;SDS011;44792;52.760;6.726;2023-11-19T03:13:27;29.65;;;4.53;;
59006;SDS011;44792;52.760;6.726;2023-11-19T03:16:04;36.70;;;4.45;;
59006;SDS011;44792;52.760;6.726;2023-11-19T03:18:30;50.47;;;6.72;;
59006;SDS011;44792;52.760;6.726;2023-11-19T03:20:56;30.75;;;5.65;;
59006;SDS011;44792;52.760;6.726;2023-11-19T03:23:28;36.38;;;4.70;;
59006;SDS011;44792;52.760;6.726;2023-11-19T03:25:54;46.08;;;4.95;;
59006;SDS011;44792;52.760;6.726;2023-11-19T03:28:20;43.13;;;5.32;;
59006;SDS011;44792;52.760;6.726;2023-11-19T03:30:46;41.58;;;5.40;;
59006;SDS011;44792;52.760;6.726;2023-11-19T03:33:13;43.75;;;5.57;;
59006;SDS011;44792;52.760;6.726;2023-11-19T03:35:41;42.67;;;5.20;;
59006;SDS011;44792;52.760;6.726;2023-11-19T03:38:07;27.90;;;4.97;;
59006;SDS011;44792;52.760;6.726;2023-11-19T03:40:33;35.97;;;4.82;;
59006;SDS011;44792;52.760;6.726;2023-11-19T03:42:59;35.28;;;7.00;;
59006;SDS011;44792;52.760;6.726;2023-11-19T03:45:25;45.78;;;5.68;;
59006;SDS011;44792;52.760;6.726;2023-11-19T03:47:51;50.97;;;5.80;;
59006;SDS011;44792;52.760;6.726;2023-11-19T03:50:17;30.98;;;6.82;;
59006;SDS011;44792;52.760;6.726;2023-11-19T03:52:45;31.17;;;5.15;;
59006;SDS011;44792;52.760;6.726;2023-11-19T03:55:11;47.60;;;6.22;;
59006;SDS011;44792;52.760;6.726;2023-11-19T03:57:38;41.10;;;5.38;;
59006;SDS011;44792;52.760;6.726;2023-11-19T04:00:04;47.20;;;5.15;;
59006;SDS011;44792;52.760;6.726;2023-11-19T04:02:38;46.97;;;5.85;;
59006;SDS011;44792;52.760;6.726;2023-11-19T04:05:04;36.63;;;5.93;;
59006;SDS011;44792;52.760;6.726;2023-11-19T04:07:32;44.88;;;6.43;;
59006;SDS011;44792;52.760;6.726;2023-11-19T04:09:59;43.65;;;6.22;;
59006;SDS011;44792;52.760;6.726;2023-11-19T04:12:25;41.28;;;4.90;;
59006;SDS011;44792;52.760;6.726;2023-11-19T04:14:51;43.95;;;6.20;;
59006;SDS011;44792;52.760;6.726;2023-11-19T04:17:16;40.50;;;4.82;;
59006;SDS011;44792;52.760;6.726;2023-11-19T04:19:42;38.78;;;5.10;;
59006;SDS011;44792;52.760;6.726;2023-11-19T04:22:08;36.70;;;5.13;;
59006;SDS011;44792;52.760;6.726;2023-11-19T04:24:34;34.53;;;6.43;;
59006;SDS011;44792;52.760;6.726;2023-11-19T04:27:01;50.40;;;6.10;;
59006;SDS011;44792;52.760;6.726;2023-11-19T04:29:29;41.67;;;5.13;;
59006;SDS011;44792;52.760;6.726;2023-11-19T04:31:56;43.95;;;6.28;;
59006;SDS011;44792;52.760;6.726;2023-11-19T04:34:22;38.03;;;5.22;;
59006;SDS011;44792;52.760;6.726;2023-11-19T04:36:47;31.95;;;5.00;;
59006;SDS011;44792;52.760;6.726;2023-11-19T04:39:15;39.60;;;6.57;;
59006;SDS011;44792;52.760;6.726;2023-11-19T04:41:46;50.08;;;6.95;;
59006;SDS011;44792;52.760;6.726;2023-11-19T04:44:18;44.58;;;5.95;;
59006;SDS011;44792;52.760;6.726;2023-11-19T04:46:44;37.35;;;5.97;;
59006;SDS011;44792;52.760;6.726;2023-11-19T04:49:10;31.45;;;4.75;;
59006;SDS011;44792;52.760;6.726;2023-11-19T04:51:38;28.17;;;5.35;;
59006;SDS011;44792;52.760;6.726;2023-11-19T04:54:05;37.00;;;5.55;;
59006;SDS011;44792;52.760;6.726;2023-11-19T04:56:31;45.50;;;6.70;;
59006;SDS011;44792;52.760;6.726;2023-11-19T04:58:57;50.80;;;5.95;;
59006;SDS011;44792;52.760;6.726;2023-11-19T05:01:23;41.30;;;5.65;;
59006;SDS011;44792;52.760;6.726;2023-11-19T05:03:49;38.88;;;6.25;;
59006;SDS011;44792;52.760;6.726;2023-11-19T05:06:16;42.45;;;6.65;;
59006;SDS011;44792;52.760;6.726;2023-11-19T05:08:41;42.85;;;5.50;;
59006;SDS011;44792;52.760;6.726;2023-11-19T05:11:07;28.27;;;4.53;;
59006;SDS011;44792;52.760;6.726;2023-11-19T05:13:35;35.83;;;5.60;;
59006;SDS011;44792;52.760;6.726;2023-11-19T05:16:01;38.67;;;6.40;;
59006;SDS011;44792;52.760;6.726;2023-11-19T05:18:26;37.72;;;4.88;;
59006;SDS011;44792;52.760;6.726;2023-11-19T05:20:53;44.08;;;7.00;;
59006;SDS011;44792;52.760;6.726;2023-11-19T05:23:19;42.67;;;6.28;;
59006;SDS011;44792;52.760;6.726;2023-11-19T05:25:45;42.83;;;5.60;;
59006;SDS011;44792;52.760;6.726;2023-11-19T05:28:12;40.58;;;6.88;;
59006;SDS011;44792;52.760;6.726;2023-11-19T05:30:39;44.05;;;6.15;;
59006;SDS011;44792;52.760;6.726;2023-11-19T05:33:05;36.60;;;5.38;;
59006;SDS011;44792;52.760;6.726;2023-11-19T05:35:34;35.55;;;6.07;;
59006;SDS011;44792;52.760;6.726;2023-11-19T05:37:59;35.75;;;6.55;;
59006;SDS011;44792;52.760;6.726;2023-11-19T05:40:27;35.03;;;5.10;;
59006;SDS011;44792;52.760;6.726;2023-11-19T05:42:53;39.53;;;6.35;;
59006;SDS011;44792;52.760;6.726;2023-11-19T05:45:19;42.72;;;7.47;;
59006;SDS011;44792;52.760;6.726;2023-11-19T05:47:45;39.53;;;4.97;;
59006;SDS011;44792;52.760;6.726;2023-11-19T05:50:11;45.03;;;6.07;;
59006;SDS011;44792;52.760;6.726;2023-11-19T05:52:36;34.92;;;6.03;;
59006;SDS011;44792;52.760;6.726;2023-11-19T05:55:03;34.08;;;5.03;;
59006;SDS011;44792;52.760;6.726;2023-11-19T05:57:30;32.92;;;6.68;;
59006;SDS011;44792;52.760;6.726;2023-11-19T05:59:56;37.22;;;5.32;;
59006;SDS011;44792;52.760;6.726;2023-11-19T06:02:23;32.10;;;5.25;;
59006;SDS011;44792;52.760;6.726;2023-11-19T06:04:49;46.65;;;6.22;;
59006;SDS011;44792;52.760;6.726;2023-11-19T06:07:15;44.00;;;5.75;;
59006;SDS011;44792;52.760;6.726;2023-11-19T06:09:41;42.17;;;5.07;;
59006;SDS011;44792;52.760;6.726;2023-11-19T06:12:07;44.03;;;6.40;;
59006;SDS011;44792;52.760;6.726;2023-11-19T06:14:33;34.97;;;5.88;;
59006;SDS011;44792;52.760;6.726;2023-11-19T06:16:59;42.75;;;5.13;;
59006;SDS011;44792;52.760;6.726;2023-11-19T06:19:25;36.65;;;5.47;;
59006;SDS011;44792;52.760;6.726;2023-11-19T06:21:50;42.83;;;5.72;;
59006;SDS011;44792;52.760;6.726;2023-11-19T06:24:16;40.92;;;5.20;;
59006;SDS011;44792;52.760;6.726;2023-11-19T06:26:42;34.38;;;5.78;;
59006;SDS011;44792;52.760;6.726;2023-11-19T06:29:08;37.08;;;5.72;;
59006;SDS011;44792;52.760;6.726;2023-11-19T06:31:33;29.65;;;5.95;;
59006;SDS011;44792;52.760;6.726;2023-11-19T06:33:59;34.80;;;5.53;;
59006;SDS011;44792;52.760;6.726;2023-11-19T06:36:29;35.90;;;6.53;;
59006;SDS011;44792;52.760;6.726;2023-11-19T06:38:59;36.83;;;6.55;;
59006;SDS011;44792;52.760;6.726;2023-11-19T06:41:24;41.58;;;7.20;;
59006;SDS011;44792;52.760;6.726;2023-11-19T06:43:50;38.78;;;5.72;;
59006;SDS011;44792;52.760;6.726;2023-11-19T06:46:17;33.78;;;5.60;;
59006;SDS011;44792;52.760;6.726;2023-11-19T06:48:43;43.63;;;5.82;;
59006;SDS011;44792;52.760;6.726;2023-11-19T06:51:10;43.45;;;6.75;;
59006;SDS011;44792;52.760;6.726;2023-11-19T06:53:38;27.35;;;5.10;;
59006;SDS011;44792;52.760;6.726;2023-11-19T06:56:20;38.53;;;6.53;;
59006;SDS011;44792;52.760;6.726;2023-11-19T06:58:46;29.95;;;6.35;;
59006;SDS011;44792;52.760;6.726;2023-11-19T07:01:13;32.92;;;5.43;;
59006;SDS011;44792;52.760;6.726;2023-11-19T07:03:46;45.28;;;6.18;;
59006;SDS011;44792;52.760;6.726;2023-11-19T07:06:12;41.28;;;6.43;;
59006;SDS011;44792;52.760;6.726;2023-11-19T07:08:39;34.03;;;4.75;;
59006;SDS011;44792;52.760;6.726;2023-11-19T07:11:06;32.75;;;5.35;;
59006;SDS011;44792;52.760;6.726;2023-11-19T07:13:35;37.97;;;6.00;;
59006;SDS011;44792;52.760;6.726;2023-11-19T07:16:01;33.90;;;5.65;;
59006;SDS011;44792;52.760;6.726;2023-11-19T07:18:26;37.25;;;6.00;;
59006;SDS011;44792;52.760;6.726;2023-11-19T07:20:52;42.90;;;5.60;;
59006;SDS011;44792;52.760;6.726;2023-11-19T07:23:19;35.72;;;5.90;;
59006;SDS011;44792;52.760;6.726;2023-11-19T07:25:46;29.38;;;5.28;;
59006;SDS011;44792;52.760;6.726;2023-11-19T07:28:13;38.20;;;4.97;;
59006;SDS011;44792;52.760;6.726;2023-11-19T07:30:42;43.58;;;6.88;;
59006;SDS011;44792;52.760;6.726;2023-11-19T07:33:08;35.92;;;5.35;;
59006;SDS011;44792;52.760;6.726;2023-11-19T07:35:34;36.90;;;5.18;;
59006;SDS011;44792;52.760;6.726;2023-11-19T07:38:00;44.25;;;5.65;;
59006;SDS011;44792;52.760;6.726;2023-11-19T07:40:26;29.50;;;5.57;;
59006;SDS011;44792;52.760;6.726;2023-11-19T07:42:52;45.95;;;6.78;;
59006;SDS011;44792;52.760;6.726;2023-11-19T07:45:17;42.47;;;5.82;;
59006;SDS011;44792;52.760;6.726;2023-11-19T07:47:43;41.88;;;5.07;;
59006;SDS011;44792;52.760;6.726;2023-11-19T07:50:12;38.47;;;4.90;;
59006;SDS011;44792;52.760;6.726;2023-11-19T07:52:42;37.28;;;5.55;;
59006;SDS011;44792;52.760;6.726;2023-11-19T07:55:07;30.33;;;5.50;;
59006;SDS011;44792;52.760;6.726;2023-11-19T07:57:33;43.67;;;5.82;;
59006;SDS011;44792;52.760;6.726;2023-11-19T07:59:59;47.85;;;5.88;;
59006;SDS011;44792;52.760;6.726;2023-11-19T08:02:26;35.05;;;6.72;;
59006;SDS011;44792;52.760;6.726;2023-11-19T08:04:53;30.52;;;5.28;;
59006;SDS011;44792;52.760;6.726;2023-11-19T08:07:20;30.77;;;5.40;;
59006;SDS011;44792;52.760;6.726;2023-11-19T08:09:47;38.67;;;6.07;;
59006;SDS011;44792;52.760;6.726;2023-11-19T08:12:13;38.65;;;5.47;;
59006;SDS011;44792;52.760;6.726;2023-11-19T08:14:40;30.17;;;6.05;;
59006;SDS011;44792;52.760;6.726;2023-11-19T08:17:06;32.65;;;6.25;;
59006;SDS011;44792;52.760;6.726;2023-11-19T08:19:32;35.42;;;4.85;;
59006;SDS011;44792;52.760;6.726;2023-11-19T08:21:58;34.45;;;6.05;;
59006;SDS011;44792;52.760;6.726;2023-11-19T08:24:23;51.10;;;6.85;;
59006;SDS011;44792;52.760;6.726;2023-11-19T08:26:49;33.72;;;4.88;;
59006;SDS011;44792;52.760;6.726;2023-11-19T08:29:15;40.50;;;5.38;;
59006;SDS011;44792;52.760;6.726;2023-11-19T08:31:41;36.20;;;6.28;;
59006;SDS011;44792;52.760;6.726;2023-11-19T08:34:07;40.80;;;5.28;;
59006;SDS011;44792;52.760;6.726;2023-11-19T08:36:34;29.77;;;5.70;;
59006;SDS011;44792;52.760;6.726;2023-11-19T08:39:00;35.90;;;5.03;;
59006;SDS011;44792;52.760;6.726;2023-11-19T08:41:26;31.83;;;6.50;;
59006;SDS011;44792;52.760;6.726;2023-11-19T08:43:52;38.15;;;5.13;;
59006;SDS011;44792;52.760;6.726;2023-11-19T08:46:18;40.65;;;5.55;;
59006;SDS011;44792;52.760;6.726;2023-11-19T08:48:43;37.55;;;6.35;;
59006;SDS011;44792;52.760;6.726;2023-11-19T08:51:09;41.85;;;7.00;;
59006;SDS011;44792;52.760;6.726;2023-11-19T08:53:35;41.25;;;5.82;;
59006;SDS011;44792;52.760;6.726;2023-11-19T08:56:01;31.85;;;4.72;;
59006;SDS011;44792;52.760;6.726;2023-11-19T08:58:28;42.72;;;5.07;;
59006;SDS011;44792;52.760;6.726;2023-11-19T09:00:54;43.53;;;6.60;;
59006;SDS011;44792;52.760;6.726;2023-11-19T09:03:20;43.28;;;6.55;;
59006;SDS011;44792;52.760;6.726;2023-11-19T09:05:46;38.35;;;5.25;;
59006;SDS011;44792;52.760;6.726;2023-11-19T09:08:11;45.90;;;6.60;;
59006;SDS011;44792;52.760;6.726;2023-11-19T09:10:37;39.25;;;4.88;;
59006;SDS011;44792;52.760;6.726;2023-11-19T09:13:03;38.80;;;5.93;;
59006;SDS011;44792;52.760;6.726;2023-11-19T09:15:29;37.92;;;4.95;;
59006;SDS011;44792;52.760;6.726;2023-11-19T09:17:55;40.83;;;7.85;;
59006;SDS011;44792;52.760;6.726;2023-11-19T09:20:21;37.47;;;5.47;;
59006;SDS011;44792;52.760;6.726;2023-11-19T09:22:47;33.13;;;5.10;;
59006;SDS011;44792;52.760;6.726;2023-11-19T09:25:16;36.85;;;6.18;;
59006;SDS011;44792;52.760;6.726;2023-11-19T09:27:42;36.30;;;5.47;;
59006;SDS011;44792;52.760;6.726;2023-11-19T09:30:09;45.22;;;7.03;;
59006;SDS011;44792;52.760;6.726;2023-11-19T09:32:35;31.60;;;5.68;;
59006;SDS011;44792;52.760;6.726;2023-11-19T09:35:02;37.38;;;5.68;;
59006;SDS011;44792;52.760;6.726;2023-11-19T09:37:28;35.67;;;6.55;;
59006;SDS011;44792;52.760;6.726;2023-11-19T09:39:54;38.33;;;5.30;;
59006;SDS011;44792;52.760;6.726;2023-11-19T09:42:20;37.33;;;5.95;;
59006;SDS011;44792;52.760;6.726;2023-11-19T09:44:46;36.10;;;5.70;;
59006;SDS011;44792;52.760;6.726;2023-11-19T09:47:13;40.08;;;5.68;;
59006;SDS011;44792;52.760;6.726;2023-11-19T09:49:40;44.83;;;5.45;;
59006;SDS011;44792;52.760;6.726;2023-11-19T09:52:06;32.80;;;6.65;;
59006;SDS011;44792;52.760;6.726;2023-11-19T09:54:32;32.53;;;5.45;;
59006;SDS011;44792;52.760;6.726;2023-11-19T09:56:58;40.50;;;5.63;;
59006;SDS011;44792;52.760;6.726;2023-11-19T09:59:29;44.78;;;5.65;;
59006;SDS011;44792;52.760;6.726;2023-11-19T10:01:56;45.47;;;5.40;;
59006;SDS011;44792;52.760;6.726;2023-11-19T10:04:22;39.78;;;5.55;;
59006;SDS011;44792;52.760;6.726;2023-11-19T10:06:49;38.03;;;5.72;;
59006;SDS011;44792;52.760;6.726;2023-11-19T10:09:16;32.85;;;6.20;;
59006;SDS011;44792;52.760;6.726;2023-11-19T10:11:42;40.85;;;4.72;;
59006;SDS011;44792;52.760;6.726;2023-11-19T10:14:08;34.15;;;4.60;;
59006;SDS011;44792;52.760;6.726;2023-11-19T10:16:34;32.80;;;5.47;;
59006;SDS011;44792;52.760;6.726;2023-11-19T10:19:01;39.72;;;5.65;;
59006;SDS011;44792;52.760;6.726;2023-11-19T10:21:27;36.53;;;5.30;;
59006;SDS011;44792;52.760;6.726;2023-11-19T10:23:54;37.33;;;4.80;;
59006;SDS011;44792;52.760;6.726;2023-11-19T10:26:25;40.80;;;4.85;;
59006;SDS011;44792;52.760;6.726;2023-11-19T10:28:52;49.80;;;7.03;;
59006;SDS011;44792;52.760;6.726;2023-11-19T10:31:19;40.78;;;6.15;;
59006;SDS011;44792;52.760;6.726;2023-11-19T10:33:51;35.28;;;5.20;;
59006;SDS011;44792;52.760;6.726;2023-11-19T10:36:18;40.58;;;6.15;;
59006;SDS011;44792;52.760;6.726;2023-11-19T10:38:54;40.55;;;5.30;;
59006;SDS011;44792;52.760;6.726;2023-11-19T10:41:31;31.23;;;5.70;;
59006;SDS011;44792;52.760;6.726;2023-11-19T10:43:58;34.13;;;5.03;;
59006;SDS011;44792;52.760;6.726;2023-11-19T10:46:42;31.90;;;5.40;;
59006;SDS011;44792;52.760;6.726;2023-11-19T10:49:11;31.88;;;5.20;;
59006;SDS011;44792;52.760;6.726;2023-11-19T10:51:39;41.38;;;6.68;;
59006;SDS011;44792;52.760;6.726;2023-11-19T10:54:13;38.40;;;5.60;;
59006;SDS011;44792;52.760;6.726;2023-11-19T10:56:43;38.00;;;4.68;;
59006;SDS011;44792;52.760;6.726;2023-11-19T10:59:11;36.08;;;5.68;;
59006;SDS011;44792;52.760;6.726;2023-11-19T11:01:43;30.05;;;4.32;;
59006;SDS011;44792;52.760;6.726;2023-11-19T11:04:14;31.42;;;5.78;;
59006;SDS011;44792;52.760;6.726;2023-11-19T11:06:42;38.03;;;5.00;;
59006;SDS011;44792;52.760;6.726;2023-11-19T11:09:08;32.85;;;5.90;;
59006;SDS011;44792;52.760;6.726;2023-11-19T11:11:39;30.13;;;5.90;;
59006;SDS011;44792;52.760;6.726;2023-11-19T11:14:09;37.75;;;4.63;;
59006;SDS011;44792;52.760;6.726;2023-11-19T11:16:37;35.22;;;4.75;;
59006;SDS011;44792;52.760;6.726;2023-11-19T11:19:09;40.60;;;5.63;;
59006;SDS011;44792;52.760;6.726;2023-11-19T11:21:36;48.80;;;5.80;;
59006;SDS011;44792;52.760;6.726;2023-11-19T11:27:01;46.10;;;5.78;;
59006;SDS011;44792;52.760;6.726;2023-11-19T11:38:22;36.13;;;5.32;;
59006;SDS011;44792;52.760;6.726;2023-11-19T11:43:46;35.60;;;4.68;;
59006;SDS011;44792;52.760;6.726;2023-11-19T11:49:03;40.65;;;5.25;;
59006;SDS011;44792;52.760;6.726;2023-11-19T11:52:15;29.00;;;5.22;;
59006;SDS011;44792;52.760;6.726;2023-11-19T12:02:11;46.75;;;5.70;;
59006;SDS011;44792;52.760;6.726;2023-11-19T12:04:41;25.20;;;4.60;;
59006;SDS011;44792;52.760;6.726;2023-11-19T12:07:10;29.38;;;4.63;;
59006;SDS011;44792;52.760;6.726;2023-11-19T12:09:42;31.73;;;7.03;;
59006;SDS011;44792;52.760;6.726;2023-11-19T12:12:22;27.40;;;5.63;;
59006;SDS011;44792;52.760;6.726;2023-11-19T12:20:01;21.73;;;4.10;;
59006;SDS011;44792;52.760;6.726;2023-11-19T12:22:31;25.48;;;5.05;;
59006;SDS011;44792;52.760;6.726;2023-11-19T12:24:56;33.22;;;5.65;;
59006;SDS011;44792;52.760;6.726;2023-11-19T12:27:23;28.60;;;4.72;;
59006;SDS011;44792;52.760;6.726;2023-11-19T12:29:49;33.28;;;5.55;;
59006;SDS011;44792;52.760;6.726;2023-11-19T12:32:14;36.28;;;5.97;;
59006;SDS011;44792;52.760;6.726;2023-11-19T12:34:40;33.70;;;6.25;;
59006;SDS011;44792;52.760;6.726;2023-11-19T12:37:06;33.78;;;5.47;;
59006;SDS011;44792;52.760;6.726;2023-11-19T12:39:35;37.55;;;5.05;;
59006;SDS011;44792;52.760;6.726;2023-11-19T12:42:00;33.90;;;6.47;;
59006;SDS011;44792;52.760;6.726;2023-11-19T12:44:26;32.08;;;4.25;;
59006;SDS011;44792;52.760;6.726;2023-11-19T12:47:02;32.05;;;4.97;;
59006;SDS011;44792;52.760;6.726;2023-11-19T12:49:29;32.67;;;4.07;;
59006;SDS011;44792;52.760;6.726;2023-11-19T12:51:55;35.72;;;4.70;;
59006;SDS011;44792;52.760;6.726;2023-11-19T12:54:31;34.10;;;5.57;;
59006;SDS011;44792;52.760;6.726;2023-11-19T12:57:03;31.65;;;5.05;;
59006;SDS011;44792;52.760;6.726;2023-11-19T12:59:30;30.08;;;4.25;;
59006;SDS011;44792;52.760;6.726;2023-11-19T13:04:23;31.45;;;4.25;;
59006;SDS011;44792;52.760;6.726;2023-11-19T13:06:52;31.25;;;5.97;;
59006;SDS011;44792;52.760;6.726;2023-11-19T13:09:25;27.45;;;4.43;;
59006;SDS011;44792;52.760;6.726;2023-11-19T13:11:52;24.63;;;4.72;;
59006;SDS011;44792;52.760;6.726;2023-11-19T13:14:19;28.65;;;5.38;;
59006;SDS011;44792;52.760;6.726;2023-11-19T13:16:45;41.33;;;4.93;;
59006;SDS011;44792;52.760;6.726;2023-11-19T13:19:15;25.15;;;4.85;;
59006;SDS011;44792;52.760;6.726;2023-11-19T13:21:41;35.50;;;5.45;;
59006;SDS011;44792;52.760;6.726;2023-11-19T13:24:07;26.65;;;4.07;;
59006;SDS011;44792;52.760;6.726;2023-11-19T13:26:33;31.27;;;4.18;;
59006;SDS011;44792;52.760;6.726;2023-11-19T13:29:03;27.65;;;4.00;;
59006;SDS011;44792;52.760;6.726;2023-11-19T13:31:29;34.90;;;5.10;;
59006;SDS011;44792;52.760;6.726;2023-11-19T13:33:55;30.02;;;4.18;;
59006;SDS011;44792;52.760;6.726;2023-11-19T13:36:21;26.35;;;3.95;;
59006;SDS011;44792;52.760;6.726;2023-11-19T13:38:47;26.38;;;3.92;;
59006;SDS011;44792;52.760;6.726;2023-11-19T13:41:13;32.13;;;4.53;;
59006;SDS011;44792;52.760;6.726;2023-11-19T13:43:39;29.25;;;6.18;;
59006;SDS011;44792;52.760;6.726;2023-11-19T13:46:05;29.35;;;4.65;;
59006;SDS011;44792;52.760;6.726;2023-11-19T13:48:31;26.88;;;4.47;;
59006;SDS011;44792;52.760;6.726;2023-11-19T13:50:57;34.75;;;4.63;;
59006;SDS011;44792;52.760;6.726;2023-11-19T13:53:23;26.88;;;4.18;;
59006;SDS011;44792;52.760;6.726;2023-11-19T13:55:49;25.98;;;4.80;;
59006;SDS011;44792;52.760;6.726;2023-11-19T13:58:15;26.98;;;4.15;;
59006;SDS011;44792;52.760;6.726;2023-11-19T14:00:41;25.48;;;4.20;;
59006;SDS011;44792;52.760;6.726;2023-11-19T14:03:08;20.67;;;4.45;;
59006;SDS011;44792;52.760;6.726;2023-11-19T14:05:36;24.20;;;3.92;;
59006;SDS011;44792;52.760;6.726;2023-11-19T14:08:02;21.88;;;4.22;;
59006;SDS011;44792;52.760;6.726;2023-11-19T14:10:28;27.25;;;4.93;;
59006;SDS011;44792;52.760;6.726;2023-11-19T14:12:54;28.23;;;4.25;;
59006;SDS011;44792;52.760;6.726;2023-11-19T14:15:20;31.40;;;4.25;;
59006;SDS011;44792;52.760;6.726;2023-11-19T14:17:45;23.92;;;4.78;;
59006;SDS011;44792;52.760;6.726;2023-11-19T14:20:11;20.65;;;4.07;;
59006;SDS011;44792;52.760;6.726;2023-11-19T14:22:45;23.35;;;4.50;;
59006;SDS011;44792;52.760;6.726;2023-11-19T14:25:16;29.98;;;4.50;;
59006;SDS011;44792;52.760;6.726;2023-11-19T14:27:42;25.95;;;4.30;;
59006;SDS011;44792;52.760;6.726;2023-11-19T14:30:09;35.22;;;5.68;;
59006;SDS011;44792;52.760;6.726;2023-11-19T14:32:36;26.00;;;4.45;;
59006;SDS011;44792;52.760;6.726;2023-11-19T14:35:03;33.63;;;5.35;;
59006;SDS011;44792;52.760;6.726;2023-11-19T14:37:30;20.02;;;4.32;;
59006;SDS011;44792;52.760;6.726;2023-11-19T14:39:56;25.60;;;4.63;;
59006;SDS011;44792;52.760;6.726;2023-11-19T14:42:23;25.23;;;3.88;;
59006;SDS011;44792;52.760;6.726;2023-11-19T14:44:50;29.40;;;4.05;;
59006;SDS011;44792;52.760;6.726;2023-11-19T14:47:20;21.77;;;4.90;;
59006;SDS011;44792;52.760;6.726;2023-11-19T14:49:46;18.33;;;3.60;;
59006;SDS011;44792;52.760;6.726;2023-11-19T14:52:12;18.98;;;4.75;;
59006;SDS011;44792;52.760;6.726;2023-11-19T14:54:38;29.02;;;4.25;;
59006;SDS011;44792;52.760;6.726;2023-11-19T14:57:04;27.90;;;3.85;;
59006;SDS011;44792;52.760;6.726;2023-11-19T14:59:31;27.50;;;3.90;;
59006;SDS011;44792;52.760;6.726;2023-11-19T15:01:58;29.70;;;4.22;;
59006;SDS011;44792;52.760;6.726;2023-11-19T15:04:25;27.58;;;3.85;;
59006;SDS011;44792;52.760;6.726;2023-11-19T15:06:50;22.30;;;4.78;;
59006;SDS011;44792;52.760;6.726;2023-11-19T15:09:16;26.63;;;3.35;;